Time;durP1;ratioP1;P1;durP2;ratioP2;P2;SDS_P1;SDS_P2;PMS_P1;PMS_P2;Temp;Humidity;BMP_temperature;BMP_pressure;BME280_temperature;BME280_humidity;BME280_pressure;Samples;Min_cycle;Max_cycle;Signal;HPM_P1;HPM_P2
2023/04/05 00:00:36;;;;;;;;;;;1.50;99.90;;;;;;5087965;28;19924;-77
2023/04/05 00:03:02;;;;;;;;;;;1.40;99.90;;;;;;5056832;28;19925;-77
2023/04/05 00:05:33;;;;;;;;;;;1.40;99.90;;;;;;5074364;28;20019;-77
2023/04/05 00:08:02;;;;;;;;;;;1.30;99.90;;;;;;5060341;28;20332;-76
2023/04/05 00:10:31;;;;;;;;;;;1.20;99.90;;;;;;5075429;28;19950;-76
2023/04/05 00:12:57;;;;;;;;;;;1.10;99.90;;;;;;5074145;28;19931;-77
2023/04/05 00:15:23;;;;;;;;;;;1.10;99.90;;;;;;5074946;28;20494;-76
2023/04/05 00:17:49;;;;;;;;;;;1.10;99.90;;;;;;5075801;28;19946;-77
2023/04/05 00:20:15;;;;;;;;;;;1.10;99.90;;;;;;5076111;28;19974;-76
2023/04/05 00:22:42;;;;;;;;;;;1.10;99.90;;;;;;5076031;28;19958;-76
2023/04/05 00:25:07;;;;;;;;;;;1.00;99.90;;;;;;5074415;28;19948;-77
2023/04/05 00:27:33;;;;;;;;;;;0.90;99.90;;;;;;5059829;28;19953;-76
2023/04/05 00:29:59;;;;;;;;;;;0.80;99.90;;;;;;5073944;28;20428;-77
2023/04/05 00:32:25;;;;;;;;;;;0.90;99.90;;;;;;5107136;28;19931;-76
2023/04/05 00:34:51;;;;;;;;;;;0.80;99.90;;;;;;5090705;28;19928;-76
2023/04/05 00:37:16;;;;;;;;;;;0.80;99.90;;;;;;5085832;28;20007;-76
2023/04/05 00:39:42;;;;;;;;;;;0.80;99.90;;;;;;4991789;28;1818140;-76
2023/04/05 00:42:08;;;;;;;;;;;0.80;99.90;;;;;;5077012;28;20360;-77
2023/04/05 00:44:33;;;;;;;;;;;0.80;99.90;;;;;;5093711;28;19935;-77
2023/04/05 00:47:02;;;;;;;;;;;0.70;99.90;;;;;;5077165;28;19927;-76
2023/04/05 00:49:32;;;;;;;;;;;0.70;99.90;;;;;;5091526;28;19924;-76
2023/04/05 00:51:58;;;;;;;;;;;0.70;99.90;;;;;;5077383;28;19983;-77
2023/04/05 00:54:24;;;;;;;;;;;0.60;99.90;;;;;;5076038;28;19971;-77
2023/04/05 00:56:53;;;;;;;;;;;0.50;99.90;;;;;;5060613;28;19924;-77
2023/04/05 00:59:19;;;;;;;;;;;0.50;99.90;;;;;;5076214;28;19931;-77
2023/04/05 01:01:53;;;;;;;;;;;0.50;99.90;;;;;;5090660;28;20287;-77
2023/04/05 01:04:24;;;;;;;;;;;0.50;99.90;;;;;;5060384;28;19946;-77
2023/04/05 01:06:56;;;;;;;;;;;0.50;99.90;;;;;;5077413;28;20271;-77
2023/04/05 01:09:25;;;;;;;;;;;0.60;99.90;;;;;;5089942;28;20011;-77
2023/04/05 01:11:52;;;;;;;;;;;0.50;99.90;;;;;;5076056;28;19928;-77
2023/04/05 01:14:17;;;;;;;;;;;0.60;99.90;;;;;;5091449;28;19924;-77
2023/04/05 01:16:44;;;;;;;;;;;0.50;99.90;;;;;;5076861;28;20015;-77
2023/04/05 01:19:12;;;;;;;;;;;0.50;99.90;;;;;;5074525;28;20003;-77
2023/04/05 01:21:58;;;;;;;;;;;0.50;99.90;;;;;;5074353;28;19963;-77
2023/04/05 01:24:32;;;;;;;;;;;0.40;99.90;;;;;;5025433;28;19928;-77
2023/04/05 01:27:05;;;;;;;;;;;0.40;99.90;;;;;;5077238;28;19962;-77
2023/04/05 01:29:31;;;;;;;;;;;0.40;99.90;;;;;;5092106;28;19934;-77
2023/04/05 01:32:00;;;;;;;;;;;0.30;99.90;;;;;;5091267;28;19991;-77
2023/04/05 01:34:34;;;;;;;;;;;0.40;99.90;;;;;;5073921;28;19932;-77
2023/04/05 01:37:06;;;;;;;;;;;0.40;99.90;;;;;;5079145;28;19928;-77
2023/04/05 01:39:34;;;;;;;;;;;0.30;99.90;;;;;;5097198;28;19963;-77
2023/04/05 01:42:00;;;;;;;;;;;0.30;99.90;;;;;;5077881;28;19924;-77
2023/04/05 01:44:26;;;;;;;;;;;0.20;99.90;;;;;;5096911;28;19930;-77
2023/04/05 01:46:52;;;;;;;;;;;0.20;99.90;;;;;;5098129;28;20023;-77
2023/04/05 01:49:17;;;;;;;;;;;0.20;99.90;;;;;;5079427;28;20272;-77
2023/04/05 01:51:43;;;;;;;;;;;0.20;99.90;;;;;;5079677;28;19924;-77
2023/04/05 01:54:08;;;;;;;;;;;0.20;99.90;;;;;;5078005;28;20006;-77
2023/04/05 01:56:34;;;;;;;;;;;0.10;99.90;;;;;;5079111;28;20011;-77
2023/04/05 01:59:00;;;;;;;;;;;0.00;99.90;;;;;;5095623;28;19924;-77
2023/04/05 02:01:25;;;;;;;;;;;0.00;99.90;;;;;;5062766;28;19935;-77
2023/04/05 02:03:51;;;;;;;;;;;0.00;99.90;;;;;;5079240;28;19924;-77
2023/04/05 02:06:16;;;;;;;;;;;-0.10;99.90;;;;;;5061800;28;20086;-77
2023/04/05 02:08:42;;;;;;;;;;;-0.10;99.90;;;;;;5095643;28;20022;-77
2023/04/05 02:11:08;;;;;;;;;;;-0.20;99.90;;;;;;5077215;28;19946;-77
2023/04/05 02:13:33;;;;;;;;;;;-0.20;99.90;;;;;;5077362;28;19924;-77
2023/04/05 02:15:59;;;;;;;;;;;-0.10;99.90;;;;;;5080108;28;19931;-77
2023/04/05 02:18:30;;;;;;;;;;;-0.10;99.90;;;;;;5077887;28;19967;-77
2023/04/05 02:21:03;;;;;;;;;;;-0.10;99.90;;;;;;5063804;28;19925;-77
2023/04/05 02:23:29;;;;;;;;;;;-0.10;99.90;;;;;;5094652;28;20399;-77
2023/04/05 02:25:55;;;;;;;;;;;0.00;99.90;;;;;;5096369;28;19928;-77
2023/04/05 02:28:20;;;;;;;;;;;0.00;99.90;;;;;;5078795;28;19940;-77
2023/04/05 02:30:46;;;;;;;;;;;0.00;99.90;;;;;;5079367;28;19928;-77
2023/04/05 02:33:12;;;;;;;;;;;-0.10;99.90;;;;;;5077753;28;19956;-77
2023/04/05 02:35:37;;;;;;;;;;;-0.10;99.90;;;;;;5094969;28;19956;-77
2023/04/05 02:38:03;;;;;;;;;;;-0.10;99.90;;;;;;5073970;28;19928;-77
2023/04/05 02:40:29;;;;;;;;;;;-0.20;99.90;;;;;;5075589;28;19931;-77
2023/04/05 02:42:55;;;;;;;;;;;-0.30;99.90;;;;;;5079664;28;20382;-77
2023/04/05 02:45:20;;;;;;;;;;;-0.40;99.90;;;;;;5091566;28;19960;-77
2023/04/05 02:47:46;;;;;;;;;;;-0.40;99.90;;;;;;5056850;28;19951;-77
2023/04/05 02:50:11;;;;;;;;;;;-0.40;99.90;;;;;;5060554;28;19924;-77
2023/04/05 02:52:37;;;;;;;;;;;-0.40;99.90;;;;;;5077351;28;20013;-77
2023/04/05 02:55:06;;;;;;;;;;;-0.40;99.90;;;;;;5059425;28;19935;-77
2023/04/05 02:57:32;;;;;;;;;;;-0.40;99.90;;;;;;5094723;28;19928;-77
2023/04/05 02:59:57;;;;;;;;;;;-0.50;99.90;;;;;;5078217;28;19931;-77
2023/04/05 03:02:23;;;;;;;;;;;-0.50;99.90;;;;;;5075356;28;19971;-77
2023/04/05 03:04:51;;;;;;;;;;;-0.40;99.90;;;;;;5077971;28;19924;-77
2023/04/05 03:07:17;;;;;;;;;;;-0.40;99.90;;;;;;5077110;28;19935;-77
2023/04/05 03:09:46;;;;;;;;;;;-0.40;99.90;;;;;;5094732;28;20400;-77
2023/04/05 03:12:12;;;;;;;;;;;-0.40;99.90;;;;;;5076966;28;20454;-77
2023/04/05 03:14:38;;;;;;;;;;;-0.40;99.90;;;;;;5095839;28;19960;-77
2023/04/05 03:17:05;;;;;;;;;;;-0.50;99.90;;;;;;5074533;28;19937;-77
2023/04/05 03:19:30;;;;;;;;;;;-0.60;99.90;;;;;;5061777;28;19925;-77
2023/04/05 03:21:57;;;;;;;;;;;-0.70;99.90;;;;;;5060643;28;19924;-77
2023/04/05 03:24:22;;;;;;;;;;;-0.90;99.90;;;;;;5077412;28;19932;-77
2023/04/05 03:26:48;;;;;;;;;;;-0.90;99.90;;;;;;5094400;28;20014;-77
2023/04/05 03:29:15;;;;;;;;;;;-0.90;99.90;;;;;;5075770;28;19924;-77
2023/04/05 03:31:41;;;;;;;;;;;-0.90;99.90;;;;;;5077462;28;19928;-77
2023/04/05 03:34:06;;;;;;;;;;;-1.00;99.90;;;;;;5076420;28;20019;-77
2023/04/05 03:36:41;;;;;;;;;;;-1.00;99.90;;;;;;5075919;28;19932;-77
2023/04/05 03:39:08;;;;;;;;;;;-1.00;99.90;;;;;;5090836;28;19925;-77
2023/04/05 03:41:34;;;;;;;;;;;-1.00;99.90;;;;;;5075899;28;19959;-77
2023/04/05 03:44:00;;;;;;;;;;;-1.00;99.90;;;;;;5092449;28;19935;-77
2023/04/05 03:46:25;;;;;;;;;;;-1.10;99.90;;;;;;5060466;28;19985;-77
2023/04/05 03:48:51;;;;;;;;;;;-1.10;99.90;;;;;;5060440;28;19932;-77
2023/04/05 03:51:17;;;;;;;;;;;-1.10;99.90;;;;;;5075655;28;19924;-77
2023/04/05 03:53:43;;;;;;;;;;;-1.20;99.90;;;;;;5076878;28;19940;-77
2023/04/05 03:56:09;;;;;;;;;;;-1.20;99.90;;;;;;5057825;28;19931;-77
2023/04/05 03:58:35;;;;;;;;;;;-1.20;99.90;;;;;;5093129;28;19928;-77
2023/04/05 04:01:01;;;;;;;;;;;-1.20;99.90;;;;;;5077910;28;19924;-77
2023/04/05 04:03:27;;;;;;;;;;;-1.10;99.90;;;;;;5077108;28;20426;-77
2023/04/05 04:05:53;;;;;;;;;;;-1.20;99.90;;;;;;5076887;28;20479;-77
2023/04/05 04:08:19;;;;;;;;;;;-1.10;99.90;;;;;;5075405;28;19959;-77
2023/04/05 04:10:45;;;;;;;;;;;-1.00;99.90;;;;;;5093480;28;20369;-77
2023/04/05 04:13:10;;;;;;;;;;;-1.10;99.90;;;;;;5075613;28;19924;-77
2023/04/05 04:15:36;;;;;;;;;;;-1.10;99.90;;;;;;5077344;28;20379;-77
2023/04/05 04:18:02;;;;;;;;;;;-1.10;99.90;;;;;;5075935;28;19928;-77
2023/04/05 04:20:27;;;;;;;;;;;-1.20;99.90;;;;;;5074702;28;19967;-77
2023/04/05 04:22:54;;;;;;;;;;;-1.10;99.90;;;;;;5059696;28;19932;-77
2023/04/05 04:25:20;;;;;;;;;;;-1.00;99.90;;;;;;5067885;28;20462;-77
2023/04/05 04:27:46;;;;;;;;;;;-1.00;99.90;;;;;;5057779;28;19973;-77
2023/04/05 04:30:13;;;;;;;;;;;-1.10;99.90;;;;;;5074678;28;19931;-77
2023/04/05 04:32:55;;;;;;;;;;;-1.20;99.90;;;;;;5094417;28;19924;-77
2023/04/05 04:35:23;;;;;;;;;;;-1.20;99.90;;;;;;5090342;28;20036;-77
2023/04/05 04:37:56;;;;;;;;;;;-1.20;99.90;;;;;;5078368;28;19930;-77
2023/04/05 04:40:37;;;;;;;;;;;-1.20;99.90;;;;;;5090388;28;19932;-77
2023/04/05 04:43:08;;;;;;;;;;;-1.20;99.90;;;;;;5091882;28;19924;-78
2023/04/05 04:45:36;;;;;;;;;;;-1.30;99.90;;;;;;5076043;28;20011;-77
2023/04/05 04:48:03;;;;;;;;;;;-1.30;99.90;;;;;;5077001;28;19953;-77
2023/04/05 04:50:30;;;;;;;;;;;-1.30;99.90;;;;;;5091469;28;19969;-77
2023/04/05 04:52:57;;;;;;;;;;;-1.20;99.90;;;;;;5057440;28;19924;-77
2023/04/05 04:55:24;;;;;;;;;;;-1.30;99.90;;;;;;5076002;28;20365;-77
2023/04/05 04:57:50;;;;;;;;;;;-1.30;99.90;;;;;;5089080;28;19932;-78
2023/04/05 05:00:17;;;;;;;;;;;-1.30;99.90;;;;;;5059202;28;19927;-79
2023/04/05 05:02:42;;;;;;;;;;;-1.30;99.90;;;;;;5093671;28;19924;-78
2023/04/05 05:05:09;;;;;;;;;;;-1.30;99.90;;;;;;5093324;28;19924;-79
2023/04/05 05:07:35;;;;;;;;;;;-1.30;99.90;;;;;;5076066;28;19931;-79
2023/04/05 05:10:00;;;;;;;;;;;-1.30;99.90;;;;;;5075120;28;19968;-79
2023/04/05 05:12:26;;;;;;;;;;;-1.20;99.90;;;;;;5080487;28;19969;-79
2023/04/05 05:14:52;;;;;;;;;;;-1.30;99.90;;;;;;5081033;28;19928;-79
2023/04/05 05:17:17;;;;;;;;;;;-1.20;99.90;;;;;;5080095;28;19931;-79
2023/04/05 05:19:44;;;;;;;;;;;-1.20;99.90;;;;;;5079284;28;19928;-78
2023/04/05 05:22:10;;;;;;;;;;;-1.20;99.90;;;;;;5095205;28;19924;-79
2023/04/05 05:24:36;;;;;;;;;;;-1.10;99.90;;;;;;5061069;28;19932;-79
2023/04/05 05:27:01;;;;;;;;;;;-1.00;99.90;;;;;;5097476;28;19979;-79
2023/04/05 05:29:27;;;;;;;;;;;-0.80;99.90;;;;;;5079440;28;19935;-79
2023/04/05 05:31:52;;;;;;;;;;;-0.80;99.90;;;;;;5079793;28;19928;-79
2023/04/05 05:34:18;;;;;;;;;;;-0.70;99.90;;;;;;5060947;28;19924;-79
2023/04/05 05:36:44;;;;;;;;;;;-0.50;99.90;;;;;;5079039;28;19928;-78
2023/04/05 05:39:10;;;;;;;;;;;-0.40;99.90;;;;;;5061163;28;20362;-79
2023/04/05 05:41:36;;;;;;;;;;;-0.20;99.90;;;;;;5094880;28;19928;-78
2023/04/05 05:44:01;;;;;;;;;;;-0.20;99.90;;;;;;5062868;28;20366;-79
2023/04/05 05:46:27;;;;;;;;;;;-0.10;99.90;;;;;;5061459;28;19929;-78
2023/04/05 05:48:52;;;;;;;;;;;-0.10;99.90;;;;;;5058480;28;19967;-78
2023/04/05 05:51:18;;;;;;;;;;;-0.20;99.90;;;;;;5062994;28;19946;-78
2023/04/05 05:53:44;;;;;;;;;;;-0.10;99.90;;;;;;5080138;28;19928;-79
2023/04/05 05:56:10;;;;;;;;;;;-0.10;99.90;;;;;;5077200;28;19927;-78
2023/04/05 05:58:35;;;;;;;;;;;0.00;99.90;;;;;;5079597;28;19924;-78
2023/04/05 06:01:02;;;;;;;;;;;0.10;99.90;;;;;;5079333;28;20387;-78
2023/04/05 06:03:32;;;;;;;;;;;0.30;99.90;;;;;;5078811;28;19967;-78
2023/04/05 06:05:58;;;;;;;;;;;0.50;99.90;;;;;;5079176;28;19924;-78
2023/04/05 06:08:26;;;;;;;;;;;0.70;99.90;;;;;;5094485;28;20021;-78
2023/04/05 06:10:52;;;;;;;;;;;0.80;99.90;;;;;;5094957;28;20302;-77
2023/04/05 06:13:18;;;;;;;;;;;0.80;99.90;;;;;;5092692;28;19984;-78
2023/04/05 06:15:44;;;;;;;;;;;0.80;99.90;;;;;;5095478;28;19928;-78
2023/04/05 06:18:09;;;;;;;;;;;0.80;99.90;;;;;;5080048;28;20018;-77
2023/04/05 06:20:39;;;;;;;;;;;0.80;99.90;;;;;;5080064;28;19928;-77
2023/04/05 06:23:05;;;;;;;;;;;0.80;99.90;;;;;;5064735;28;19931;-77
2023/04/05 06:25:30;;;;;;;;;;;0.80;99.90;;;;;;5077464;28;21140;-77
2023/04/05 06:27:56;;;;;;;;;;;0.80;99.90;;;;;;5064951;28;19924;-77
2023/04/05 06:30:22;;;;;;;;;;;0.90;99.90;;;;;;5081025;28;19924;-77
2023/04/05 06:32:53;;;;;;;;;;;0.90;99.90;;;;;;5081745;28;19987;-77
2023/04/05 06:35:21;;;;;;;;;;;0.90;99.90;;;;;;5065594;28;19924;-77
2023/04/05 06:37:47;;;;;;;;;;;0.90;99.90;;;;;;5078300;28;19946;-77
2023/04/05 06:40:13;;;;;;;;;;;1.00;99.90;;;;;;5098277;28;19987;-77
2023/04/05 06:42:39;;;;;;;;;;;1.10;99.90;;;;;;5076778;28;20100;-77
2023/04/05 06:45:05;;;;;;;;;;;1.20;99.90;;;;;;5080984;28;19924;-77
2023/04/05 06:47:34;;;;;;;;;;;1.30;99.90;;;;;;5076985;28;19923;-77
2023/04/05 06:50:01;;;;;;;;;;;1.40;99.90;;;;;;5079642;28;19943;-77
2023/04/05 06:52:27;;;;;;;;;;;1.50;99.90;;;;;;5079668;28;19924;-77
2023/04/05 06:54:53;;;;;;;;;;;1.60;99.90;;;;;;5097768;28;19980;-77
2023/04/05 06:57:18;;;;;;;;;;;1.60;99.90;;;;;;5079692;28;20489;-77
2023/04/05 06:59:44;;;;;;;;;;;1.70;99.90;;;;;;5058249;28;19939;-77
2023/04/05 07:02:11;;;;;;;;;;;1.80;99.90;;;;;;5060817;28;19975;-77
2023/04/05 07:04:36;;;;;;;;;;;1.90;99.90;;;;;;5080532;28;19924;-77
2023/04/05 07:07:02;;;;;;;;;;;2.00;99.90;;;;;;5094221;28;19939;-77
2023/04/05 07:09:31;;;;;;;;;;;2.10;99.90;;;;;;5064398;28;19924;-77
2023/04/05 07:11:57;;;;;;;;;;;2.20;99.90;;;;;;5061335;28;19928;-77
2023/04/05 07:14:23;;;;;;;;;;;2.30;99.90;;;;;;5063112;28;19924;-77
2023/04/05 07:16:48;;;;;;;;;;;2.50;99.90;;;;;;5062276;28;20444;-77
2023/04/05 07:19:14;;;;;;;;;;;2.90;99.90;;;;;;5062818;28;19946;-78
2023/04/05 07:21:39;;;;;;;;;;;3.70;99.90;;;;;;5062595;28;19924;-78
2023/04/05 07:24:05;;;;;;;;;;;4.60;99.90;;;;;;5096399;28;19931;-78
2023/04/05 07:26:34;;;;;;;;;;;5.50;99.90;;;;;;5074561;28;19924;-78
2023/04/05 07:29:00;;;;;;;;;;;6.40;99.90;;;;;;5080788;28;20335;-78
2023/04/05 07:31:26;;;;;;;;;;;7.00;99.90;;;;;;5077781;28;20003;-78
2023/04/05 07:33:52;;;;;;;;;;;7.50;99.90;;;;;;5080060;28;20368;-78
2023/04/05 07:36:17;;;;;;;;;;;7.90;99.90;;;;;;5061111;28;19998;-78
2023/04/05 07:38:43;;;;;;;;;;;8.40;99.90;;;;;;5078504;28;19928;-78
2023/04/05 07:41:10;;;;;;;;;;;8.90;99.90;;;;;;5076475;28;19966;-78
2023/04/05 07:43:35;;;;;;;;;;;9.30;99.90;;;;;;5079312;28;20086;-77
2023/04/05 07:46:01;;;;;;;;;;;9.80;99.90;;;;;;5077771;28;19959;-78
2023/04/05 07:48:27;;;;;;;;;;;10.20;97.10;;;;;;5079417;28;19924;-78
2023/04/05 07:50:53;;;;;;;;;;;10.50;98.30;;;;;;5094614;28;19942;-78
2023/04/05 07:53:18;;;;;;;;;;;10.50;94.10;;;;;;5076735;28;20395;-78
2023/04/05 07:55:45;;;;;;;;;;;10.50;91.70;;;;;;5062869;28;19928;-79
2023/04/05 07:58:10;;;;;;;;;;;10.50;91.00;;;;;;5058526;28;19931;-78
2023/04/05 08:00:37;;;;;;;;;;;10.60;94.50;;;;;;5058735;28;19929;-78
2023/04/05 08:03:03;;;;;;;;;;;10.90;91.50;;;;;;5097082;28;20009;-79
2023/04/05 08:05:29;;;;;;;;;;;11.10;90.60;;;;;;5080395;28;19992;-79
2023/04/05 08:07:56;;;;;;;;;;;11.30;88.00;;;;;;5059363;28;20411;-79
2023/04/05 08:10:23;;;;;;;;;;;11.70;79.10;;;;;;5060087;28;19940;-80
2023/04/05 08:12:48;;;;;;;;;;;11.90;78.60;;;;;;5061391;28;19924;-80
2023/04/05 08:15:14;;;;;;;;;;;12.10;69.70;;;;;;5096491;28;19939;-80
2023/04/05 08:17:39;;;;;;;;;;;12.40;70.60;;;;;;5071590;28;20013;-80
2023/04/05 08:20:06;;;;;;;;;;;12.60;71.10;;;;;;5094030;28;19949;-80
2023/04/05 08:22:31;;;;;;;;;;;12.80;70.10;;;;;;5093743;28;19924;-81
2023/04/05 08:24:57;;;;;;;;;;;13.00;71.20;;;;;;5077273;28;20045;-81
2023/04/05 08:27:23;;;;;;;;;;;13.30;72.90;;;;;;5057068;28;19974;-81
2023/04/05 08:29:48;;;;;;;;;;;13.30;69.30;;;;;;5073010;28;20334;-81
2023/04/05 08:32:14;;;;;;;;;;;13.40;63.60;;;;;;5068278;28;20408;-81
2023/04/05 08:34:39;;;;;;;;;;;13.50;69.50;;;;;;5059880;28;20485;-81
2023/04/05 08:37:05;;;;;;;;;;;13.60;63.90;;;;;;5060719;28;20465;-81
2023/04/05 08:39:33;;;;;;;;;;;13.70;59.60;;;;;;5075263;28;19931;-81
2023/04/05 08:42:02;;;;;;;;;;;13.90;57.90;;;;;;5078672;28;19924;-81
2023/04/05 08:44:29;;;;;;;;;;;13.90;62.00;;;;;;5079192;28;19928;-81
2023/04/05 08:46:55;;;;;;;;;;;13.90;59.50;;;;;;5094750;28;20054;-81
2023/04/05 08:49:21;;;;;;;;;;;14.00;56.80;;;;;;5075263;28;19971;-81
2023/04/05 08:51:47;;;;;;;;;;;14.00;60.20;;;;;;5097983;28;19931;-81
2023/04/05 08:54:13;;;;;;;;;;;14.00;57.00;;;;;;5082363;28;19931;-81
2023/04/05 08:56:41;;;;;;;;;;;14.00;53.50;;;;;;5082163;28;19931;-81
2023/04/05 08:59:08;;;;;;;;;;;14.00;56.20;;;;;;5096553;28;19943;-80
2023/04/05 09:01:39;;;;;;;;;;;14.00;54.80;;;;;;5077531;28;19935;-81
2023/04/05 09:04:06;;;;;;;;;;;14.10;54.80;;;;;;5082234;28;19931;-81
2023/04/05 09:06:32;;;;;;;;;;;14.10;57.50;;;;;;5092880;28;19967;-81
2023/04/05 09:08:58;;;;;;;;;;;14.10;54.90;;;;;;5097476;28;19931;-81
2023/04/05 09:11:24;;;;;;;;;;;14.10;54.80;;;;;;5060721;28;19932;-81
2023/04/05 09:13:50;;;;;;;;;;;13.90;53.80;;;;;;5092120;28;20023;-81
2023/04/05 09:16:16;;;;;;;;;;;14.00;55.50;;;;;;5078188;28;20006;-80
2023/04/05 09:18:41;;;;;;;;;;;13.90;54.10;;;;;;5080367;28;19924;-81
2023/04/05 09:21:08;;;;;;;;;;;13.90;51.10;;;;;;5064986;28;19928;-81
2023/04/05 09:23:34;;;;;;;;;;;14.10;61.50;;;;;;5063752;28;19931;-81
2023/04/05 09:25:59;;;;;;;;;;;14.20;53.70;;;;;;5061623;28;20015;-81
2023/04/05 09:28:54;;;;;;;;;;;14.50;53.40;;;;;;5095156;28;19956;-81
2023/04/05 09:31:30;;;;;;;;;;;14.40;51.20;;;;;;5087021;28;19931;-81
2023/04/05 09:33:56;;;;;;;;;;;14.50;52.20;;;;;;5097898;28;20023;-80
2023/04/05 09:36:22;;;;;;;;;;;14.50;53.20;;;;;;5067025;28;19924;-78
2023/04/05 09:38:48;;;;;;;;;;;14.30;51.20;;;;;;5077386;28;19935;-80
2023/04/05 09:41:13;;;;;;;;;;;14.30;54.00;;;;;;5061998;28;19928;-80
2023/04/05 09:43:40;;;;;;;;;;;14.50;54.70;;;;;;5077953;28;19924;-80
2023/04/05 09:46:06;;;;;;;;;;;14.50;51.90;;;;;;5080145;28;19932;-80
2023/04/05 09:48:47;;;;;;;;;;;14.40;53.40;;;;;;5055876;28;19924;-80
2023/04/05 09:51:17;;;;;;;;;;;14.40;51.80;;;;;;5080223;28;20302;-80
2023/04/05 09:53:59;;;;;;;;;;;14.40;49.20;;;;;;5078019;28;19924;-81
2023/04/05 09:56:25;;;;;;;;;;;14.60;54.00;;;;;;5085566;28;19924;-80
2023/04/05 09:58:51;;;;;;;;;;;14.70;52.90;;;;;;5078233;28;20010;-80
2023/04/05 10:01:17;;;;;;;;;;;14.60;51.70;;;;;;5079590;28;19978;-81
2023/04/05 10:03:46;;;;;;;;;;;14.70;52.60;;;;;;5064412;28;19943;-81
2023/04/05 10:06:12;;;;;;;;;;;14.90;53.40;;;;;;5078306;28;19935;-80
2023/04/05 10:08:38;;;;;;;;;;;15.00;52.90;;;;;;5079346;28;19934;-81
2023/04/05 10:11:05;;;;;;;;;;;15.10;53.60;;;;;;5078664;28;19971;-81
2023/04/05 10:13:30;;;;;;;;;;;15.20;53.80;;;;;;5078432;28;19948;-80
2023/04/05 10:15:58;;;;;;;;;;;15.10;55.60;;;;;;5063010;28;19932;-80
2023/04/05 10:18:27;;;;;;;;;;;15.00;53.70;;;;;;5080307;28;19946;-80
2023/04/05 10:20:53;;;;;;;;;;;14.90;52.50;;;;;;5080630;28;19977;-70
2023/04/05 10:23:23;;;;;;;;;;;14.60;48.20;;;;;;5098600;28;19939;-70
2023/04/05 10:25:52;;;;;;;;;;;14.00;48.90;;;;;;5098723;28;20276;-70
2023/04/05 10:28:31;;;;;;;;;;;13.60;50.90;;;;;;5097057;28;19928;-69
2023/04/05 10:31:16;;;;;;;;;;;13.20;55.30;;;;;;5098798;28;19924;-70
2023/04/05 10:33:41;;;;;;;;;;;13.00;55.30;;;;;;5089040;28;19932;-70
2023/04/05 10:36:10;;;;;;;;;;;12.80;55.00;;;;;;5097131;28;19924;-70
2023/04/05 10:38:44;;;;;;;;;;;12.70;54.20;;;;;;5079562;28;19924;-70
2023/04/05 10:41:13;;;;;;;;;;;12.70;54.20;;;;;;5086625;28;19971;-70
2023/04/05 10:43:39;;;;;;;;;;;12.50;52.80;;;;;;5093743;28;19984;-70
2023/04/05 10:46:06;;;;;;;;;;;12.40;54.70;;;;;;5097466;28;19924;-70
2023/04/05 10:48:50;;;;;;;;;;;12.40;55.40;;;;;;5090922;28;19931;-69
2023/04/05 10:51:16;;;;;;;;;;;12.40;51.90;;;;;;5087250;28;19935;-70
2023/04/05 10:53:42;;;;;;;;;;;12.40;54.00;;;;;;5097529;28;19928;-70
2023/04/05 10:56:08;;;;;;;;;;;12.50;53.50;;;;;;5095743;28;20383;-69
2023/04/05 10:58:35;;;;;;;;;;;12.60;55.40;;;;;;5095434;28;20369;-70
2023/04/05 11:01:03;;;;;;;;;;;12.80;55.70;;;;;;5094892;28;19924;-70
2023/04/05 11:03:43;;;;;;;;;;;12.90;55.40;;;;;;5096722;28;19932;-69
2023/04/05 11:06:32;;;;;;;;;;;12.80;53.90;;;;;;5096025;28;19935;-69
2023/04/05 11:09:13;;;;;;;;;;;12.80;54.10;;;;;;5083582;28;20042;-70
2023/04/05 11:11:40;;;;;;;;;;;12.60;55.20;;;;;;5095233;28;19985;-69
2023/04/05 11:14:26;;;;;;;;;;;12.60;57.00;;;;;;5097190;28;19942;-70
2023/04/05 11:16:55;;;;;;;;;;;12.60;57.30;;;;;;5096823;28;19983;-70
2023/04/05 11:19:47;;;;;;;;;;;12.80;56.70;;;;;;5090397;28;20331;-69
2023/04/05 11:22:23;;;;;;;;;;;12.90;58.10;;;;;;5091309;28;19924;-69
2023/04/05 11:24:50;;;;;;;;;;;13.00;57.30;;;;;;5094091;28;20490;-70
2023/04/05 11:27:15;;;;;;;;;;;13.00;55.40;;;;;;5090123;28;19988;-69
2023/04/05 11:29:45;;;;;;;;;;;13.00;55.00;;;;;;5093847;28;19940;-70
2023/04/05 11:32:11;;;;;;;;;;;13.00;52.40;;;;;;5092221;28;19925;-70
2023/04/05 11:34:36;;;;;;;;;;;13.00;56.80;;;;;;5088825;28;19932;-70
2023/04/05 11:37:02;;;;;;;;;;;12.90;49.90;;;;;;5095236;28;19924;-69
2023/04/05 11:39:28;;;;;;;;;;;12.70;52.30;;;;;;5095512;28;19984;-69
2023/04/05 11:41:55;;;;;;;;;;;12.80;54.40;;;;;;5098075;28;19950;-69
2023/04/05 11:44:22;;;;;;;;;;;12.60;55.30;;;;;;5096596;28;19998;-69
2023/04/05 11:46:48;;;;;;;;;;;12.50;55.00;;;;;;5098386;28;19923;-69
2023/04/05 11:49:14;;;;;;;;;;;12.60;54.40;;;;;;5085556;28;19935;-69
2023/04/05 11:51:47;;;;;;;;;;;12.60;53.50;;;;;;5091745;28;19931;-69
2023/04/05 11:54:13;;;;;;;;;;;12.60;50.70;;;;;;5084096;28;19924;-69
2023/04/05 11:56:39;;;;;;;;;;;12.50;51.30;;;;;;5089889;28;19945;-69
2023/04/05 11:59:04;;;;;;;;;;;12.60;52.00;;;;;;5087509;28;19991;-69
2023/04/05 12:01:30;;;;;;;;;;;12.60;49.40;;;;;;5082853;28;19931;-70
2023/04/05 12:03:55;;;;;;;;;;;12.30;52.90;;;;;;5094626;28;19931;-71
2023/04/05 12:06:24;;;;;;;;;;;12.20;53.20;;;;;;5089291;28;19925;-71
2023/04/05 12:08:51;;;;;;;;;;;12.20;54.10;;;;;;5097470;28;19936;-71
2023/04/05 12:11:27;;;;;;;;;;;12.10;52.50;;;;;;5097824;28;19928;-70
2023/04/05 12:13:54;;;;;;;;;;;12.00;51.00;;;;;;5094976;28;19924;-71
2023/04/05 12:16:20;;;;;;;;;;;12.00;54.60;;;;;;5092460;28;19939;-70
2023/04/05 12:18:51;;;;;;;;;;;12.00;53.20;;;;;;5096030;28;19928;-71
2023/04/05 12:21:17;;;;;;;;;;;12.10;52.30;;;;;;5088457;28;19924;-71
2023/04/05 12:23:43;;;;;;;;;;;12.30;55.00;;;;;;5079835;28;19946;-70
2023/04/05 12:26:08;;;;;;;;;;;12.40;56.30;;;;;;5095695;28;19924;-71
2023/04/05 12:28:54;;;;;;;;;;;12.40;52.20;;;;;;5094511;28;19969;-71
2023/04/05 12:31:38;;;;;;;;;;;12.30;53.10;;;;;;5094056;28;19924;-71
2023/04/05 12:34:04;;;;;;;;;;;12.10;54.60;;;;;;5078912;28;19928;-71
2023/04/05 12:36:33;;;;;;;;;;;12.10;54.10;;;;;;5096436;28;19931;-70
2023/04/05 12:38:59;;;;;;;;;;;12.10;53.10;;;;;;5095636;28;19931;-71
2023/04/05 12:41:31;;;;;;;;;;;12.20;54.10;;;;;;5092870;28;19975;-71
2023/04/05 12:44:00;;;;;;;;;;;12.10;53.40;;;;;;5094046;28;19924;-71
2023/04/05 12:46:45;;;;;;;;;;;12.00;55.00;;;;;;5095650;28;19932;-70
2023/04/05 12:49:14;;;;;;;;;;;12.00;55.20;;;;;;5098253;28;19928;-71
2023/04/05 12:51:44;;;;;;;;;;;11.90;55.00;;;;;;5093875;28;19950;-71
2023/04/05 12:54:13;;;;;;;;;;;11.80;54.60;;;;;;5090950;28;20397;-71
2023/04/05 12:56:39;;;;;;;;;;;11.90;57.60;;;;;;5094612;28;19925;-70
2023/04/05 12:59:08;;;;;;;;;;;11.90;55.70;;;;;;5095497;28;19989;-71
2023/04/05 13:01:34;;;;;;;;;;;11.80;55.50;;;;;;5093111;28;19932;-70
2023/04/05 13:04:00;;;;;;;;;;;11.90;54.10;;;;;;5092692;28;19928;-71
2023/04/05 13:06:26;;;;;;;;;;;11.70;54.80;;;;;;5092256;28;19969;-71
2023/04/05 13:08:52;;;;;;;;;;;11.60;52.00;;;;;;5095244;28;19946;-71
2023/04/05 13:11:17;;;;;;;;;;;11.70;55.10;;;;;;5093056;28;19936;-71
2023/04/05 13:13:43;;;;;;;;;;;11.80;57.00;;;;;;5094381;28;19935;-71
2023/04/05 13:16:08;;;;;;;;;;;11.90;55.60;;;;;;5093969;28;19967;-70
2023/04/05 13:18:34;;;;;;;;;;;11.90;53.70;;;;;;5092381;28;20355;-71
2023/04/05 13:21:06;;;;;;;;;;;11.80;55.40;;;;;;5086405;28;19932;-71
2023/04/05 13:23:32;;;;;;;;;;;11.70;54.20;;;;;;5087374;28;19929;-70
2023/04/05 13:25:57;;;;;;;;;;;11.70;52.90;;;;;;5074127;28;19932;-71
2023/04/05 13:28:24;;;;;;;;;;;11.70;54.60;;;;;;5092750;28;19928;-71
2023/04/05 13:30:50;;;;;;;;;;;11.80;57.00;;;;;;5095190;28;19979;-71
2023/04/05 13:33:16;;;;;;;;;;;11.80;53.00;;;;;;5090103;28;19971;-71
2023/04/05 13:35:42;;;;;;;;;;;11.70;55.20;;;;;;5096410;28;20362;-71
2023/04/05 13:38:07;;;;;;;;;;;11.70;54.70;;;;;;5094836;28;19935;-71
2023/04/05 13:40:33;;;;;;;;;;;11.70;55.60;;;;;;5097691;28;19939;-70
2023/04/05 13:42:59;;;;;;;;;;;11.80;57.70;;;;;;5098867;28;19946;-71
2023/04/05 13:45:25;;;;;;;;;;;12.00;53.00;;;;;;5090060;28;19928;-71
2023/04/05 13:47:50;;;;;;;;;;;12.20;51.00;;;;;;5091092;28;19924;-71
2023/04/05 13:50:16;;;;;;;;;;;12.10;52.70;;;;;;5065432;28;20346;-71
2023/04/05 13:52:42;;;;;;;;;;;12.20;55.40;;;;;;5077001;28;19928;-71
2023/04/05 13:55:07;;;;;;;;;;;12.30;54.10;;;;;;5084254;28;19984;-71
2023/04/05 13:57:33;;;;;;;;;;;12.20;52.40;;;;;;5093100;28;20023;-71
2023/04/05 13:59:58;;;;;;;;;;;12.10;52.80;;;;;;5088437;28;19925;-71
2023/04/05 14:02:26;;;;;;;;;;;12.00;51.80;;;;;;5095750;28;19932;-71
2023/04/05 14:04:52;;;;;;;;;;;11.90;52.30;;;;;;5091542;28;19996;-71
2023/04/05 14:07:19;;;;;;;;;;;11.80;55.70;;;;;;5084424;28;19940;-71
2023/04/05 14:09:44;;;;;;;;;;;11.90;54.30;;;;;;5087073;28;19928;-71
2023/04/05 14:12:10;;;;;;;;;;;11.90;52.10;;;;;;5070793;28;19931;-71
2023/04/05 14:14:36;;;;;;;;;;;11.70;52.70;;;;;;5092674;28;19969;-71
2023/04/05 14:17:01;;;;;;;;;;;11.60;54.00;;;;;;5094755;28;19936;-72
2023/04/05 14:19:27;;;;;;;;;;;11.50;56.60;;;;;;5099009;28;19924;-71
2023/04/05 14:21:52;;;;;;;;;;;11.60;53.50;;;;;;5067214;28;19947;-71